Time;durP1;ratioP1;P1;durP2;ratioP2;P2;SDS_P1;SDS_P2;PMS_P1;PMS_P2;Temp;Humidity;BMP_temperature;BMP_pressure;BME280_temperature;BME280_humidity;BME280_pressure;Samples;Min_cycle;Max_cycle;Signal;HPM_P1;HPM_P2
2023/04/09 00:02:46;;;;;;;7.53;3.90;;;;;;;19.37;48.45;97517.28;10377615;28;20121;-73
2023/04/09 00:08:06;;;;;;;6.97;3.92;;;;;;;19.36;48.52;97512.94;10377188;28;20038;-73
2023/04/09 00:13:28;;;;;;;6.68;4.20;;;;;;;19.36;48.49;97523.75;10334387;28;20131;-73
2023/04/09 00:18:47;;;;;;;5.13;3.70;;;;;;;19.34;48.32;97526.75;10363872;28;20056;-73
2023/04/09 00:24:07;;;;;;;7.30;4.05;;;;;;;19.33;48.36;97519.78;10363217;28;20111;-73
2023/04/09 00:29:26;;;;;;;6.72;4.03;;;;;;;19.33;48.29;97516.28;10366653;28;20065;-73
2023/04/09 00:34:47;;;;;;;7.03;4.32;;;;;;;19.31;48.22;97510.38;10362879;28;20049;-73
2023/04/09 00:40:07;;;;;;;5.75;3.97;;;;;;;19.30;48.23;97524.97;10349070;28;20479;-73
2023/04/09 00:45:27;;;;;;;9.30;4.47;;;;;;;19.29;48.18;97518.78;10377596;28;20042;-73
2023/04/09 00:50:46;;;;;;;6.15;4.10;;;;;;;19.27;48.07;97515.59;10390442;28;20042;-73
2023/04/09 00:56:06;;;;;;;6.70;3.90;;;;;;;19.26;48.03;97513.19;10387253;28;20096;-73
2023/04/09 01:01:26;;;;;;;5.82;3.95;;;;;;;19.25;47.98;97514.28;10390799;28;20121;-74
2023/04/09 01:07:03;;;;;;;5.65;3.80;;;;;;;19.24;48.01;97507.28;10375434;28;20072;-74
2023/04/09 01:12:32;;;;;;;5.60;3.85;;;;;;;19.24;47.95;97504.59;10375396;28;20061;-78
2023/04/09 01:18:00;;;;;;;4.57;3.58;;;;;;;19.22;47.96;97501.41;10361553;28;20050;-74
2023/04/09 01:23:45;;;;;;;5.43;4.15;;;;;;;19.21;47.82;97505.19;10360521;28;20045;-74
2023/04/09 01:29:06;;;;;;;5.35;3.88;;;;;;;19.21;47.98;97518.69;10347646;28;20054;-74
2023/04/09 01:34:26;;;;;;;5.93;3.83;;;;;;;19.20;47.91;97514.41;10360521;28;20041;-74
2023/04/09 01:39:47;;;;;;;5.10;3.85;;;;;;;19.19;47.80;97526.31;10360629;28;20057;-74
2023/04/09 01:45:07;;;;;;;5.35;4.13;;;;;;;19.16;47.62;97506.91;10360375;28;20041;-74
2023/04/09 01:50:27;;;;;;;5.28;4.15;;;;;;;19.16;47.60;97522.31;10360350;28;20049;-74
2023/04/09 01:55:46;;;;;;;4.60;3.53;;;;;;;19.15;47.63;97524.22;10363924;28;20120;-74
2023/04/09 02:01:18;;;;;;;5.05;3.97;;;;;;;19.14;47.80;97511.03;10373566;28;20077;-74
2023/04/09 02:06:43;;;;;;;5.70;3.78;;;;;;;19.12;47.59;97516.72;10373127;28;20037;-74
2023/04/09 02:12:05;;;;;;;6.75;3.70;;;;;;;19.10;47.56;97521.63;10359592;28;20107;-74
2023/04/09 02:17:25;;;;;;;5.13;3.78;;;;;;;19.11;47.62;97533.22;10359059;28;20038;-74
2023/04/09 02:22:45;;;;;;;5.05;3.50;;;;;;;19.09;47.65;97536.25;10372851;28;20065;-74
2023/04/09 02:28:05;;;;;;;4.90;3.35;;;;;;;19.09;47.66;97520.03;10352697;28;20049;-74
2023/04/09 02:33:24;;;;;;;4.15;3.50;;;;;;;19.08;47.63;97526.53;10372608;28;20049;-74
2023/04/09 02:38:44;;;;;;;4.78;3.83;;;;;;;19.06;47.65;97519.84;10358919;28;20042;-74
2023/04/09 02:44:04;;;;;;;4.72;3.50;;;;;;;19.05;47.45;97519.06;10372850;28;20041;-74
2023/04/09 02:49:24;;;;;;;4.97;3.65;;;;;;;19.04;47.47;97516.66;10358826;28;20046;-74
2023/04/09 02:54:43;;;;;;;5.28;3.88;;;;;;;19.03;47.44;97513.13;10372250;28;20061;-74
2023/04/09 03:00:04;;;;;;;5.13;3.88;;;;;;;19.03;47.55;97507.72;10358368;28;20037;-74
2023/04/09 03:05:23;;;;;;;4.45;3.50;;;;;;;19.01;47.45;97507.25;10358128;28;20041;-74
2023/04/09 03:10:43;;;;;;;4.47;3.40;;;;;;;19.01;47.42;97506.44;10371980;28;20108;-74
2023/04/09 03:16:03;;;;;;;4.82;3.70;;;;;;;18.98;47.51;97505.16;10371683;28;20050;-74
2023/04/09 03:21:22;;;;;;;4.38;3.50;;;;;;;18.98;47.31;97518.66;10371828;28;20041;-74
2023/04/09 03:26:44;;;;;;;6.80;3.80;;;;;;;18.98;47.20;97520.56;10355535;28;20050;-74
2023/04/09 03:32:05;;;;;;;4.57;3.55;;;;;;;18.96;47.54;97515.47;10371493;28;20479;-74
2023/04/09 03:37:25;;;;;;;3.72;3.33;;;;;;;18.94;47.33;97507.66;10358059;28;20411;-74
2023/04/09 03:42:45;;;;;;;5.40;3.50;;;;;;;18.94;47.37;97493.38;10386325;28;20057;-74
2023/04/09 03:48:07;;;;;;;5.57;3.80;;;;;;;18.93;47.27;97506.06;10378737;28;20104;-74
2023/04/09 03:53:27;;;;;;;3.78;3.20;;;;;;;18.91;47.30;97497.44;10392185;28;20042;-74
2023/04/09 03:58:54;;;;;;;3.65;3.20;;;;;;;18.91;47.28;97497.44;10378323;28;20050;-74
2023/04/09 04:04:19;;;;;;;4.43;3.80;;;;;;;18.90;47.27;97489.69;10365098;28;20054;-74
2023/04/09 04:09:45;;;;;;;4.28;3.33;;;;;;;18.90;47.24;97495.06;10351695;28;20042;-74
2023/04/09 04:15:09;;;;;;;4.38;3.75;;;;;;;18.88;47.07;97498.06;10364515;28;20057;-74
2023/04/09 04:20:36;;;;;;;3.67;3.38;;;;;;;18.87;47.16;97501.06;10364572;28;20050;-74
2023/04/09 04:26:01;;;;;;;4.93;3.40;;;;;;;18.86;47.04;97502.19;10376507;28;20399;-74
2023/04/09 04:31:25;;;;;;;6.25;3.58;;;;;;;18.86;47.06;97510.28;10363351;28;20053;-74
2023/04/09 04:36:45;;;;;;;4.78;3.85;;;;;;;18.85;47.12;97514.88;10363221;28;20042;-74
2023/04/09 04:42:05;;;;;;;3.60;3.25;;;;;;;18.83;47.07;97518.97;10376828;28;20060;-74
2023/04/09 04:47:25;;;;;;;3.70;3.40;;;;;;;18.83;47.06;97518.97;10349194;28;20046;-74
2023/04/09 04:52:45;;;;;;;4.07;3.20;;;;;;;18.80;46.99;97503.38;10376299;28;20042;-74
2023/04/09 04:58:05;;;;;;;3.90;3.30;;;;;;;18.80;46.95;97506.88;10375007;28;20049;-74
2023/04/09 05:03:34;;;;;;;3.53;3.22;;;;;;;18.80;47.09;97514.16;10363314;28;20387;-74
2023/04/09 05:09:12;;;;;;;4.80;3.45;;;;;;;18.77;46.95;97513.63;10367431;28;20053;-74
2023/04/09 05:14:46;;;;;;;3.97;3.20;;;;;;;18.76;47.01;97524.75;10375478;28;20053;-74
2023/04/09 05:20:07;;;;;;;3.67;3.30;;;;;;;18.74;47.20;97530.47;10375397;28;20499;-74
2023/04/09 05:25:37;;;;;;;4.35;3.22;;;;;;;18.74;46.99;97535.06;10373187;28;20493;-74
2023/04/09 05:30:58;;;;;;;3.42;2.90;;;;;;;18.73;46.86;97534.25;10360954;28;20042;-73
2023/04/09 05:36:18;;;;;;;5.60;2.97;;;;;;;18.72;47.35;97538.06;10360706;28;20053;-74
2023/04/09 05:41:37;;;;;;;4.55;3.50;;;;;;;18.70;46.96;97537.56;10360646;28;20045;-74
2023/04/09 05:47:17;;;;;;;4.40;4.00;;;;;;;18.70;47.72;97536.72;10345498;28;20132;-75
2023/04/09 05:52:48;;;;;;;4.95;3.42;;;;;;;18.72;47.63;97548.06;10349684;28;20442;-75
2023/04/09 05:58:09;;;;;;;4.88;3.72;;;;;;;18.72;47.46;97548.84;10360330;28;20046;-75
2023/04/09 06:03:28;;;;;;;4.80;3.55;;;;;;;18.73;47.89;97545.03;10359701;28;20038;-83
2023/04/09 06:08:48;;;;;;;5.13;3.60;;;;;;;18.73;47.81;97547.72;10346067;28;20041;-84
2023/04/09 06:14:11;;;;;;;3.83;3.42;;;;;;;18.75;47.92;97547.44;10359628;28;20048;-83
2023/04/09 06:19:30;;;;;;;4.78;3.50;;;;;;;18.75;48.05;97555.53;10373172;28;20491;-84
2023/04/09 06:24:50;;;;;;;3.60;3.30;;;;;;;18.78;48.60;97558.44;10359338;28;20067;-82
2023/04/09 06:30:10;;;;;;;3.45;3.15;;;;;;;18.81;48.68;97565.16;10333859;28;20054;-72
2023/04/09 06:35:30;;;;;;;5.35;3.63;;;;;;;18.84;48.40;97563.78;10346913;28;20045;-73
2023/04/09 06:40:50;;;;;;;4.93;3.80;;;;;;;18.86;48.21;97569.69;10333608;28;20054;-80
2023/04/09 06:46:10;;;;;;;3.88;3.28;;;;;;;18.87;48.23;97573.97;10345529;28;20046;-80
2023/04/09 06:51:30;;;;;;;7.40;5.28;;;;;;;18.89;47.34;97569.06;10331866;28;20046;-74
2023/04/09 06:56:50;;;;;;;9.25;5.22;;;;;;;18.91;47.61;97578.44;10331948;28;20101;-73
2023/04/09 07:02:10;;;;;;;12.75;6.70;;;;;;;18.93;47.08;97580.84;10346422;28;20050;-75
2023/04/09 07:07:30;;;;;;;14.82;6.78;;;;;;;18.96;46.95;97581.06;10345275;28;20114;-78
2023/04/09 07:12:50;;;;;;;12.43;7.25;;;;;;;18.98;47.01;97585.38;10332417;28;20042;-77
2023/04/09 07:18:09;;;;;;;11.73;6.68;;;;;;;19.01;46.65;97585.53;10318979;28;20054;-80
2023/04/09 07:23:29;;;;;;;14.07;6.60;;;;;;;19.03;46.67;97591.44;10325194;28;20038;-73
2023/04/09 07:28:49;;;;;;;16.05;6.70;;;;;;;19.07;45.64;97597.88;10355059;28;20058;-72
2023/04/09 07:34:09;;;;;;;12.85;7.30;;;;;;;19.11;46.67;97603.44;10365762;28;20072;-73
2023/04/09 07:39:28;;;;;;;14.13;7.28;;;;;;;19.13;46.81;97595.84;10365313;28;20064;-73
2023/04/09 07:44:48;;;;;;;13.70;6.63;;;;;;;19.22;46.92;97598.66;10379299;28;20050;-73
2023/04/09 07:50:08;;;;;;;13.88;7.20;;;;;;;19.26;47.01;97608.53;10378785;28;20042;-72
2023/04/09 07:55:27;;;;;;;12.48;7.30;;;;;;;19.29;46.76;97615.25;10378442;28;20053;-73
2023/04/09 08:00:47;;;;;;;13.85;7.28;;;;;;;19.31;46.43;97608.44;10393059;28;20096;-73
2023/04/09 08:06:07;;;;;;;14.80;7.32;;;;;;;19.32;46.75;97610.03;10364160;28;20426;-73
2023/04/09 08:11:27;;;;;;;12.52;6.85;;;;;;;19.34;46.61;97607.81;10392416;28;20052;-73
2023/04/09 08:16:47;;;;;;;13.63;8.48;;;;;;;19.34;44.98;97607.81;10377573;28;20506;-73
2023/04/09 08:22:07;;;;;;;13.23;7.65;;;;;;;19.37;47.69;97617.25;10377657;28;20045;-74
2023/04/09 08:27:26;;;;;;;14.23;7.50;;;;;;;19.41;47.18;97612.81;10359160;28;20357;-74
2023/04/09 08:32:45;;;;;;;13.43;7.57;;;;;;;19.45;47.41;97618.44;10363665;28;20403;-74
2023/04/09 08:38:05;;;;;;;13.50;7.30;;;;;;;19.49;47.87;97622.91;10363319;28;20046;-73
2023/04/09 08:43:27;;;;;;;14.70;7.35;;;;;;;19.51;47.56;97618.00;10391267;28;20037;-73
2023/04/09 08:48:48;;;;;;;17.15;7.65;;;;;;;19.56;47.48;97639.53;10376611;28;20045;-73
2023/04/09 08:54:08;;;;;;;14.13;7.72;;;;;;;19.62;48.69;97628.59;10362618;28;20556;-73
2023/04/09 08:59:28;;;;;;;21.20;10.05;;;;;;;19.63;49.97;97625.59;10362325;28;20053;-73
2023/04/09 09:04:49;;;;;;;17.08;10.93;;;;;;;19.64;47.73;97621.78;10376030;28;20045;-72
2023/04/09 09:10:08;;;;;;;20.92;18.20;;;;;;;18.00;38.58;97622.16;10375629;28;20479;-72
2023/04/09 09:15:28;;;;;;;21.60;19.15;;;;;;;17.52;38.80;97625.78;10375144;28;20041;-72
2023/04/09 09:20:47;;;;;;;20.85;18.15;;;;;;;18.37;44.50;97623.16;10374979;28;20042;-72
2023/04/09 09:26:17;;;;;;;18.55;15.48;;;;;;;18.90;45.34;97636.25;10360379;28;20097;-72
2023/04/09 09:31:48;;;;;;;20.80;14.43;;;;;;;19.22;45.45;97639.16;10375275;28;20061;-73
2023/04/09 09:37:26;;;;;;;18.75;14.50;;;;;;;19.40;46.27;97646.34;10374643;28;20046;-72
2023/04/09 09:42:54;;;;;;;19.03;12.03;;;;;;;19.54;46.65;97646.31;10361070;28;20049;-73
2023/04/09 09:48:14;;;;;;;13.38;11.13;;;;;;;19.59;46.46;97640.81;10331150;28;20058;-73
2023/04/09 09:53:38;;;;;;;14.82;11.48;;;;;;;19.66;46.99;97645.78;10360291;28;20133;-72
2023/04/09 09:59:22;;;;;;;15.63;12.88;;;;;;;19.74;47.86;97643.22;10359951;28;20129;-72
2023/04/09 10:04:43;;;;;;;29.75;17.10;;;;;;;19.81;50.59;97642.00;10373726;28;20042;-73
2023/04/09 10:10:04;;;;;;;20.58;15.68;;;;;;;19.82;50.32;97644.41;10388188;28;20061;-72
2023/04/09 10:15:25;;;;;;;17.58;12.40;;;;;;;19.85;50.21;97632.16;10359554;28;20112;-73
2023/04/09 10:21:00;;;;;;;19.05;14.18;;;;;;;19.90;50.95;97638.25;10373093;28;20479;-73
2023/04/09 10:26:21;;;;;;;22.38;16.02;;;;;;;19.96;51.54;97628.13;10358996;28;20065;-73
2023/04/09 10:31:50;;;;;;;39.05;23.35;;;;;;;19.96;47.20;97628.13;10372715;28;20093;-73
2023/04/09 10:37:14;;;;;;;47.78;27.00;;;;;;;19.96;50.60;97622.72;10387224;28;20049;-72
2023/04/09 10:42:42;;;;;;;65.05;29.10;;;;;;;20.00;50.96;97625.59;10358722;28;20096;-72
2023/04/09 10:48:01;;;;;;;34.35;18.92;;;;;;;20.02;51.00;97613.38;10372753;28;20042;-73
2023/04/09 10:53:25;;;;;;;37.58;21.52;;;;;;;20.01;48.37;97616.38;10373548;28;20050;-74
2023/04/09 10:58:44;;;;;;;65.38;35.78;;;;;;;19.98;46.71;97620.50;10395432;28;20046;-74
2023/04/09 11:04:15;;;;;;;85.60;39.97;;;;;;;20.01;47.72;97616.38;10366565;28;20050;-74
2023/04/09 11:09:35;;;;;;;90.45;48.40;;;;;;;20.03;48.55;97617.69;10394914;28;20042;-73
2023/04/09 11:14:55;;;;;;;104.63;58.45;;;;;;;20.08;48.90;97616.75;10380066;28;20410;-73
2023/04/09 11:20:16;;;;;;;83.22;53.40;;;;;;;20.12;49.30;97601.50;10379882;28;20100;-73
2023/04/09 11:25:36;;;;;;;71.53;44.47;;;;;;;20.09;49.08;97613.75;10365894;28;20045;-73
2023/04/09 11:30:55;;;;;;;56.75;39.30;;;;;;;20.09;48.02;97610.22;10365694;28;20401;-73
2023/04/09 11:36:15;;;;;;;40.72;30.30;;;;;;;20.08;45.94;97609.44;10379120;28;20050;-72
2023/04/09 11:41:35;;;;;;;39.10;29.13;;;;;;;20.06;46.06;97611.63;10365633;28;20037;-73
2023/04/09 11:46:56;;;;;;;31.42;25.25;;;;;;;20.05;46.41;97609.25;10378863;28;20042;-73
2023/04/09 11:52:15;;;;;;;26.48;20.25;;;;;;;20.11;46.81;97610.72;10364885;28;20053;-73
2023/04/09 11:57:45;;;;;;;23.00;20.55;;;;;;;19.83;40.09;97613.53;10378480;28;20050;-74
2023/04/09 12:03:05;;;;;;;23.05;16.70;;;;;;;19.66;44.02;97613.34;10350799;28;20556;-73
2023/04/09 12:08:26;;;;;;;21.65;17.20;;;;;;;19.82;45.44;97617.34;10364075;28;20050;-73
2023/04/09 12:13:45;;;;;;;21.67;17.60;;;;;;;19.92;45.70;97610.91;10363981;28;20050;-73
2023/04/09 12:19:06;;;;;;;23.88;16.33;;;;;;;20.00;46.28;97617.50;10377727;28;20045;-73
2023/04/09 12:24:27;;;;;;;20.38;15.77;;;;;;;20.02;46.48;97613.38;10363972;28;20490;-73
2023/04/09 12:29:47;;;;;;;22.27;15.80;;;;;;;20.05;46.62;97614.66;10367028;28;20120;-76
2023/04/09 12:35:07;;;;;;;18.95;14.30;;;;;;;20.06;46.73;97608.16;10363157;28;20046;-74
2023/04/09 12:40:26;;;;;;;18.98;13.93;;;;;;;20.07;46.82;97615.13;10376755;28;20038;-74
2023/04/09 12:45:46;;;;;;;18.38;12.07;;;;;;;20.09;46.96;97610.22;10376450;28;20069;-73
2023/04/09 12:51:05;;;;;;;19.42;13.25;;;;;;;20.10;47.20;97609.13;10376137;28;20046;-72
2023/04/09 12:56:26;;;;;;;18.35;12.25;;;;;;;20.10;47.38;97603.72;10362620;28;20046;-73
2023/04/09 13:01:46;;;;;;;15.07;12.20;;;;;;;20.11;47.40;97602.59;10376162;28;20045;-73
2023/04/09 13:07:06;;;;;;;16.27;12.65;;;;;;;20.11;48.40;97605.28;10390501;28;20053;-73
2023/04/09 13:12:26;;;;;;;17.30;12.52;;;;;;;20.10;47.76;97592.91;10375504;28;20053;-73
2023/04/09 13:17:46;;;;;;;15.75;12.32;;;;;;;20.08;48.30;97598.59;10389242;28;20042;-73
2023/04/09 13:23:05;;;;;;;16.65;13.40;;;;;;;19.76;42.24;97591.53;10361342;28;20042;-73
2023/04/09 13:28:24;;;;;;;13.20;10.55;;;;;;;19.82;45.64;97603.84;10368000;28;20042;-73
2023/04/09 13:33:44;;;;;;;13.73;11.63;;;;;;;19.92;45.86;97600.88;10375873;28;20410;-74
2023/04/09 13:39:04;;;;;;;13.15;11.45;;;;;;;19.99;45.86;97596.94;10374679;28;20044;-73
2023/04/09 13:44:25;;;;;;;12.25;10.95;;;;;;;20.02;46.31;97590.94;10389699;28;20045;-72
2023/04/09 13:49:45;;;;;;;15.57;11.45;;;;;;;20.06;46.83;97584.59;10361717;28;20092;-73
2023/04/09 13:55:06;;;;;;;12.95;10.95;;;;;;;20.06;46.92;97581.88;10360967;28;20045;-73
2023/04/09 14:00:26;;;;;;;16.00;12.02;;;;;;;20.01;42.10;97586.63;10388704;28;20038;-73
2023/04/09 14:05:45;;;;;;;9.73;7.70;;;;;;;19.97;43.64;97593.75;10373551;28;20037;-73
2023/04/09 14:11:05;;;;;;;11.20;9.85;;;;;;;19.95;45.00;97594.06;10373387;28;20062;-73
2023/04/09 14:16:25;;;;;;;10.52;8.75;;;;;;;19.95;46.01;97589.47;10359303;28;20046;-73
2023/04/09 14:21:45;;;;;;;11.38;9.77;;;;;;;19.95;45.36;97586.75;10359225;28;20049;-73
2023/04/09 14:27:08;;;;;;;12.65;10.13;;;;;;;19.97;46.53;97580.22;10355607;28;20057;-73
2023/04/09 14:32:27;;;;;;;15.68;9.75;;;;;;;19.99;46.71;97578.81;10358999;28;20049;-74
2023/04/09 14:37:47;;;;;;;11.80;10.23;;;;;;;20.01;47.24;97582.00;10372604;28;20049;-74
2023/04/09 14:43:08;;;;;;;14.77;12.13;;;;;;;20.02;46.36;97575.50;10358504;28;20046;-74
2023/04/09 14:48:28;;;;;;;13.68;10.45;;;;;;;19.96;46.73;97568.63;10372564;28;20049;-74
2023/04/09 14:53:48;;;;;;;12.50;11.18;;;;;;;19.95;46.35;97573.25;10372006;28;20042;-75
2023/04/09 14:59:07;;;;;;;14.32;10.07;;;;;;;19.94;47.19;97571.63;10372566;28;20057;-75
2023/04/09 15:04:27;;;;;;;10.23;8.65;;;;;;;19.97;47.13;97574.81;10358219;28;20046;-74
2023/04/09 15:09:46;;;;;;;12.90;9.63;;;;;;;19.96;46.80;97568.63;10371976;28;20406;-75
2023/04/09 15:15:07;;;;;;;10.70;7.68;;;;;;;19.92;46.86;97563.03;10371819;28;20046;-74
2023/04/09 15:20:26;;;;;;;20.23;9.82;;;;;;;19.93;47.72;97567.34;10342358;28;20112;-76
2023/04/09 15:25:46;;;;;;;14.95;9.40;;;;;;;19.94;47.76;97565.44;10357827;28;20037;-74
2023/04/09 15:31:06;;;;;;;19.10;8.90;;;;;;;19.94;47.94;97568.13;10371553;28;20089;-73
2023/04/09 15:36:25;;;;;;;13.15;9.35;;;;;;;19.94;48.29;97566.22;10371531;28;20465;-76
2023/04/09 15:41:45;;;;;;;12.23;9.27;;;;;;;19.95;47.96;97567.84;10362660;28;20041;-74
2023/04/09 15:47:05;;;;;;;11.18;8.93;;;;;;;19.92;48.45;97563.03;10365741;28;20124;-73
2023/04/09 15:52:25;;;;;;;9.40;8.38;;;;;;;19.94;48.46;97560.03;10378598;28;20042;-72
2023/04/09 15:57:45;;;;;;;11.70;8.70;;;;;;;19.94;48.66;97560.03;10378582;28;20046;-73
2023/04/09 16:03:05;;;;;;;7.15;6.13;;;;;;;19.92;48.75;97562.22;10393248;28;20156;-74
2023/04/09 16:08:24;;;;;;;13.43;11.02;;;;;;;19.86;45.06;97569.66;10377939;28;20042;-75
2023/04/09 16:13:45;;;;;;;17.20;14.02;;;;;;;19.28;41.76;97576.59;10378235;28;20479;-75
2023/04/09 16:19:04;;;;;;;15.10;12.23;;;;;;;19.42;45.39;97576.56;10392680;28;20042;-74
2023/04/09 16:24:25;;;;;;;9.68;8.68;;;;;;;19.58;45.71;97577.03;10377574;28;20065;-74
2023/04/09 16:29:45;;;;;;;9.38;8.35;;;;;;;19.66;45.96;97584.44;10367272;28;20061;-75
2023/04/09 16:35:05;;;;;;;10.45;9.25;;;;;;;19.68;46.18;97581.41;10363498;28;20053;-74
2023/04/09 16:40:24;;;;;;;15.23;10.25;;;;;;;19.72;46.09;97577.03;10376774;28;20406;-75
2023/04/09 16:45:45;;;;;;;17.80;13.35;;;;;;;19.61;43.71;97571.03;10376486;28;20046;-74
2023/04/09 16:51:05;;;;;;;8.82;8.02;;;;;;;19.63;45.57;97581.53;10363384;28;20046;-74
2023/04/09 16:56:24;;;;;;;18.25;16.00;;;;;;;19.27;41.35;97580.44;10376250;28;20100;-75
2023/04/09 17:01:44;;;;;;;19.80;16.38;;;;;;;18.87;40.67;97574.75;10362353;28;20049;-73
2023/04/09 17:07:04;;;;;;;17.20;15.32;;;;;;;18.78;41.45;97569.25;10362192;28;20042;-73
2023/04/09 17:12:24;;;;;;;19.50;13.65;;;;;;;19.04;42.76;97567.97;10375710;28;20053;-73
2023/04/09 17:17:44;;;;;;;17.50;12.95;;;;;;;19.20;43.36;97580.03;10375596;28;20068;-73
2023/04/09 17:23:04;;;;;;;13.82;9.63;;;;;;;19.28;43.79;97582.00;10376384;28;20046;-73
2023/04/09 17:28:24;;;;;;;12.95;9.85;;;;;;;19.35;44.04;97584.31;10364334;28;20061;-73
2023/04/09 17:33:47;;;;;;;13.20;11.43;;;;;;;19.37;44.48;97579.41;10374896;28;20050;-74
2023/04/09 17:39:06;;;;;;;15.18;11.65;;;;;;;19.41;44.61;97582.31;10361307;28;20092;-74
2023/04/09 17:44:26;;;;;;;14.45;9.85;;;;;;;19.41;44.93;97580.41;10389156;28;20042;-73
2023/04/09 17:49:46;;;;;;;19.33;13.07;;;;;;;19.41;45.08;97585.81;10360839;28;20038;-74
2023/04/09 17:55:07;;;;;;;20.38;11.80;;;;;;;19.42;46.19;97600.91;10333487;28;20052;-73
2023/04/09 18:00:27;;;;;;;13.10;10.20;;;;;;;19.43;46.64;97604.41;10374163;28;20101;-75
2023/04/09 18:05:46;;;;;;;13.57;10.05;;;;;;;19.44;46.71;97612.19;10373255;28;20045;-76
2023/04/09 18:11:07;;;;;;;11.32;8.77;;;;;;;19.46;46.92;97611.91;10388437;28;20046;-75
2023/04/09 18:16:27;;;;;;;12.57;8.02;;;;;;;19.48;47.23;97613.22;10373701;28;20096;-74
2023/04/09 18:21:46;;;;;;;18.15;10.77;;;;;;;19.51;47.75;97619.91;10359479;28;20384;-74
2023/04/09 18:27:06;;;;;;;18.08;10.50;;;;;;;19.52;48.37;97619.63;10355883;28;20064;-74
2023/04/09 18:32:26;;;;;;;16.05;11.00;;;;;;;19.53;49.04;97629.31;10372700;28;20056;-74
2023/04/09 18:37:45;;;;;;;21.30;13.48;;;;;;;19.54;49.78;97633.63;10387512;28;20054;-74
2023/04/09 18:43:05;;;;;;;17.17;11.07;;;;;;;19.56;50.54;97639.53;10387453;28;20046;-76
2023/04/09 18:48:25;;;;;;;15.82;11.30;;;;;;;19.59;51.17;97640.81;10359001;28;20493;-75
2023/04/09 18:53:45;;;;;;;13.48;10.05;;;;;;;19.61;52.71;97643.22;10358723;28;20099;-73
2023/04/09 18:59:05;;;;;;;14.52;10.25;;;;;;;19.62;52.97;97642.91;10358573;28;20053;-74
2023/04/09 19:04:29;;;;;;;13.63;9.85;;;;;;;19.63;52.83;97641.81;10358466;28;20042;-74
2023/04/09 19:09:48;;;;;;;13.43;9.32;;;;;;;19.66;52.97;97632.28;10372706;28;20108;-74
2023/04/09 19:15:08;;;;;;;16.65;9.50;;;;;;;19.67;52.45;97633.88;10374580;28;20100;-75
2023/04/09 19:20:27;;;;;;;14.95;8.70;;;;;;;19.69;52.98;97627.06;10366242;28;20046;-75
2023/04/09 19:25:54;;;;;;;11.45;9.52;;;;;;;19.72;52.69;97628.41;10379766;28;20453;-73
2023/04/09 19:31:15;;;;;;;11.50;9.30;;;;;;;19.73;52.67;97628.09;10379985;28;20060;-74
2023/04/09 19:36:35;;;;;;;12.13;8.77;;;;;;;19.75;53.06;97627.78;10379988;28;20046;-74
2023/04/09 19:41:56;;;;;;;14.20;9.05;;;;;;;19.78;52.96;97616.38;10366130;28;20068;-74
2023/04/09 19:47:15;;;;;;;15.57;9.57;;;;;;;19.79;53.10;97611.75;10393938;28;20052;-74
2023/04/09 19:52:36;;;;;;;11.55;8.38;;;;;;;19.80;52.94;97616.03;10379303;28;20483;-74
2023/04/09 19:57:56;;;;;;;11.07;8.65;;;;;;;19.80;53.04;97621.44;10378936;28;20054;-74
2023/04/09 20:03:15;;;;;;;11.38;8.85;;;;;;;19.81;53.09;97615.75;10393319;28;20042;-74
2023/04/09 20:08:36;;;;;;;12.48;8.75;;;;;;;19.82;52.71;97617.34;10364729;28;20046;-74
2023/04/09 20:13:56;;;;;;;10.20;7.85;;;;;;;19.83;52.81;97618.16;10378455;28;20491;-73
2023/04/09 20:19:16;;;;;;;14.40;8.27;;;;;;;19.83;52.62;97620.84;10364608;28;20049;-75
2023/04/09 20:24:35;;;;;;;10.25;7.25;;;;;;;19.83;52.96;97628.97;10363613;28;20042;-74
2023/04/09 20:29:55;;;;;;;9.63;7.95;;;;;;;19.83;52.36;97618.16;10352826;28;20494;-74
2023/04/09 20:35:15;;;;;;;12.48;8.10;;;;;;;19.83;52.26;97626.25;10377692;28;20057;-75
2023/04/09 20:40:36;;;;;;;10.25;7.57;;;;;;;19.82;52.18;97622.75;10391863;28;20050;-73
2023/04/09 20:45:56;;;;;;;9.70;7.72;;;;;;;19.83;52.22;97618.94;10391984;28;20046;-75
2023/04/09 20:51:15;;;;;;;10.88;7.80;;;;;;;19.84;52.29;97627.88;10350257;28;20037;-75
2023/04/09 20:56:35;;;;;;;9.32;7.75;;;;;;;19.84;52.03;97619.75;10363501;28;20053;-76
2023/04/09 21:01:54;;;;;;;8.77;6.65;;;;;;;19.84;52.00;97627.88;10362812;28;20042;-76
2023/04/09 21:07:14;;;;;;;11.25;7.22;;;;;;;19.83;51.89;97620.84;10376776;28;20080;-76
2023/04/09 21:12:33;;;;;;;10.02;7.07;;;;;;;19.83;51.80;97629.75;10376242;28;20042;-74
2023/04/09 21:17:53;;;;;;;8.05;6.93;;;;;;;19.84;51.87;97634.06;10361852;28;20053;-75
2023/04/09 21:23:13;;;;;;;7.45;6.70;;;;;;;19.84;51.80;97628.66;10375229;28;20100;-75
2023/04/09 21:28:32;;;;;;;8.30;6.28;;;;;;;19.86;51.71;97628.38;10361517;28;20050;-75
2023/04/09 21:33:52;;;;;;;8.23;6.90;;;;;;;19.85;51.65;97629.44;10389628;28;20061;-75
2023/04/09 21:39:11;;;;;;;8.40;6.68;;;;;;;19.87;51.43;97641.56;10388605;28;20100;-75
2023/04/09 21:44:31;;;;;;;9.05;6.60;;;;;;;19.85;51.69;97642.97;10360479;28;20124;-74
2023/04/09 21:49:50;;;;;;;9.43;7.22;;;;;;;19.85;51.46;97634.88;10360400;28;20080;-75
2023/04/09 21:55:10;;;;;;;8.82;6.55;;;;;;;19.86;51.52;97644.59;10388744;28;20402;-74
2023/04/09 22:00:29;;;;;;;8.90;6.18;;;;;;;19.83;51.60;97645.97;10373872;28;20045;-75
2023/04/09 22:05:49;;;;;;;7.65;6.47;;;;;;;19.82;51.83;97641.69;10346410;28;20380;-74
2023/04/09 22:11:08;;;;;;;7.68;6.85;;;;;;;19.82;51.60;97647.09;10359996;28;20044;-74
2023/04/09 22:16:28;;;;;;;10.15;7.00;;;;;;;19.82;51.56;97654.41;10373379;28;20057;-74
2023/04/09 22:21:49;;;;;;;8.48;6.43;;;;;;;19.80;51.40;97645.78;10373062;28;20545;-74
2023/04/09 22:27:09;;;;;;;7.45;6.30;;;;;;;19.79;51.41;97645.00;10355768;28;20050;-74
2023/04/09 22:32:32;;;;;;;7.65;6.45;;;;;;;19.79;51.50;97649.59;10387614;28;20050;-75
2023/04/09 22:37:51;;;;;;;6.68;6.00;;;;;;;19.79;51.59;97661.22;10359273;28;20041;-74
2023/04/09 22:43:11;;;;;;;7.10;6.03;;;;;;;19.79;51.48;97657.72;10359153;28;20042;-74
2023/04/09 22:48:31;;;;;;;7.50;6.18;;;;;;;19.78;51.39;97658.81;10372282;28;20045;-74
2023/04/09 22:53:50;;;;;;;8.75;6.50;;;;;;;19.78;51.45;97661.50;10359120;28;20046;-74
2023/04/09 22:59:10;;;;;;;6.50;5.90;;;;;;;19.77;51.39;97658.00;10372186;28;20061;-75
2023/04/09 23:04:29;;;;;;;6.63;5.78;;;;;;;19.77;51.43;97658.00;10358315;28;20038;-75
2023/04/09 23:09:50;;;;;;;7.22;5.82;;;;;;;19.76;51.24;97656.44;10386762;28;20109;-75
2023/04/09 23:15:10;;;;;;;6.47;5.88;;;;;;;19.74;51.38;97653.22;10344830;28;20410;-75
2023/04/09 23:20:30;;;;;;;6.10;5.15;;;;;;;19.74;51.43;97656.72;10371791;28;20049;-75
2023/04/09 23:25:49;;;;;;;6.38;5.63;;;;;;;19.73;51.36;97648.91;10358303;28;20411;-75
2023/04/09 23:31:09;;;;;;;6.07;5.53;;;;;;;19.73;51.33;97640.81;10371714;28;20042;-75
2023/04/09 23:36:29;;;;;;;5.93;5.32;;;;;;;19.72;51.38;97640.00;10357887;28;20050;-75
2023/04/09 23:41:49;;;;;;;6.13;5.22;;;;;;;19.72;51.36;97644.63;10371507;28;20042;-75
2023/04/09 23:47:09;;;;;;;6.28;5.63;;;;;;;19.71;51.26;97642.97;10386287;28;20482;-74
2023/04/09 23:52:30;;;;;;;6.80;5.43;;;;;;;19.70;51.14;97641.41;10371336;28;20046;-74
2023/04/09 23:57:50;;;;;;;5.95;4.90;;;;;;;19.69;51.10;97640.56;10371333;28;20046;-74
